Delhi, MN

2:12 AM CST on December 06, 2016 (GMT -0600)
Redwood Falls Municipal | | Change Station

Elev 1024 ft 44.55 °N, 95.08 °W | Updated 19 minutes ago

Overcast
Overcast
26 °F
Feels Like 14 °F
N
16
Wind Variable Wind from West
Gusts 26 mph

Today
High -- | Low -- °F
--% Chance of Precip.
Yesterday
High -- | Low -- °F
Precip. -- in
Pressure 29.78 in
Visibility 10.0 miles
Clouds Overcast 2100 ft
Windchill 14 °F
Dew Point 17 °F
Humidity 69%
Rainfall 0.00 in
Snow Depth Not available.
7:43 AM 4:40 PM
Waxing Crescent, 39% visible
METAR KRWF 060753Z AUTO 27014G23KT 10SM OVC021 M03/M08 A2974 RMK AO2 PK WND 27030/0716 SLP082 T10331083
Pressure 29.78 in
Visibility 10.0 miles
Clouds Overcast 2100 ft
Windchill 14 °F
Dew Point 17 °F
Humidity 69%
Rainfall 0.00 in
Snow Depth Not available.
7:43 AM 4:40 PM
Waxing Crescent, 39% visible
METAR KRWF 060753Z AUTO 27014G23KT 10SM OVC021 M03/M08 A2974 RMK AO2 PK WND 27030/0716 SLP082 T10331083

10-Day Weather Forecast

Almanac

Astronomy

Dec. 06, 2016 Rise Set
Actual Time
Civil Twilight
Nautical Twilight
Astronomical Twilight
Moon
Length of Visible Light
Length of Day
Tomorrow will be .
, % of the Moon is Illuminated

Today's Extremes

State Highs State Lows

Community

WunderPhotos

Upload Photos

1,955,935 photos uploaded!

WunderBlog® & News

Nearby

Air Quality

  Air Quality AQ Index Pollutant
Not available.

Snow Depth

Station Depth Elevation

Earthquake Activity

City Distance Mag. Time & Date
Minimum magnitude displayed is 2.5.

Coastal Water Temperatures

Place Temperature

Stations

Nearby Weather Stations

Station Location Temp. Windchill Dew Point Humidity Wind Precip. Elev Updated Type
                   

Watches & Warnings

There are currently no watches in effect.